Time;durP1;ratioP1;P1;durP2;ratioP2;P2;SDS_P1;SDS_P2;PMS_P1;PMS_P2;Temp;Humidity;BMP_temperature;BMP_pressure;BME280_temperature;BME280_humidity;BME280_pressure;Samples;Min_cycle;Max_cycle;Signal;HPM_P1;HPM_P2
2022/12/14 00:01:14;;;;;;;44.60;29.67;;;;;;;-0.12;100.00;92728.78;5090199;28;20548;-71
2022/12/14 00:03:41;;;;;;;45.38;28.67;;;;;;;-0.07;100.00;92726.56;5089879;28;20044;-71
2022/12/14 00:06:12;;;;;;;45.10;29.58;;;;;;;-0.20;100.00;92718.66;5089858;28;20048;-71
2022/12/14 00:08:40;;;;;;;50.47;30.52;;;;;;;-0.16;100.00;92735.88;5089946;28;20056;-72
2022/12/14 00:11:07;;;;;;;50.03;31.17;;;;;;;-0.14;100.00;92733.19;5089578;28;20077;-72
2022/12/14 00:13:34;;;;;;;45.35;29.50;;;;;;;-0.09;100.00;92735.25;5089948;28;20047;-72
2022/12/14 00:16:06;;;;;;;42.55;27.83;;;;;;;-0.09;100.00;92730.19;5089684;28;20105;-72
2022/12/14 00:18:33;;;;;;;47.55;30.55;;;;;;;-0.07;100.00;92739.19;5089769;28;20541;-72
2022/12/14 00:21:05;;;;;;;44.25;28.92;;;;;;;-0.07;100.00;92729.09;5089865;28;20048;-72
2022/12/14 00:23:33;;;;;;;39.70;26.00;;;;;;;-0.07;100.00;92734.16;5089911;28;20047;-73
2022/12/14 00:26:07;;;;;;;37.40;25.42;;;;;;;-0.06;100.00;92735.72;5090374;28;20052;-72
2022/12/14 00:28:34;;;;;;;36.17;23.95;;;;;;;-0.06;100.00;92723.09;5089439;28;20052;-72
2022/12/14 00:31:00;;;;;;;37.53;25.75;;;;;;;-0.25;100.00;92734.28;5091479;28;20093;-72
2022/12/14 00:33:27;;;;;;;37.97;24.95;;;;;;;-0.61;100.00;92732.00;5094042;28;20105;-72
2022/12/14 00:35:54;;;;;;;36.42;24.13;;;;;;;-0.69;100.00;92730.25;5093744;28;20077;-72
2022/12/14 00:38:20;;;;;;;40.80;25.98;;;;;;;-0.68;100.00;92725.03;5093719;28;20097;-71
2022/12/14 00:40:47;;;;;;;40.53;27.73;;;;;;;-0.83;100.00;92724.81;5093686;28;20113;-72
2022/12/14 00:43:15;;;;;;;38.42;26.52;;;;;;;-0.75;100.00;92725.81;5093996;28;20055;-72
2022/12/14 00:45:43;;;;;;;38.20;25.38;;;;;;;-0.66;100.00;92729.16;5093137;28;20048;-72
2022/12/14 00:48:10;;;;;;;41.67;27.02;;;;;;;-0.54;100.00;92726.16;5092840;28;20059;-72
2022/12/14 00:50:37;;;;;;;41.55;28.13;;;;;;;-0.38;100.00;92728.91;5093459;28;20086;-72
2022/12/14 00:53:04;;;;;;;44.47;29.88;;;;;;;-0.58;100.00;92714.03;5093591;28;20051;-71
2022/12/14 00:55:36;;;;;;;44.53;28.40;;;;;;;-0.51;100.00;92731.88;5092901;28;20135;-71
2022/12/14 00:58:03;;;;;;;45.75;30.70;;;;;;;-0.38;100.00;92728.91;5093613;28;20081;-71
2022/12/14 01:00:31;;;;;;;44.97;29.95;;;;;;;-0.24;100.00;92724.97;5093587;28;20052;-71
2022/12/14 01:02:58;;;;;;;42.80;28.25;;;;;;;-0.26;100.00;92720.09;5093417;28;20048;-71
2022/12/14 01:05:25;;;;;;;40.67;28.13;;;;;;;-0.33;100.00;92714.84;5093062;28;20044;-72
2022/12/14 01:07:51;;;;;;;40.50;27.45;;;;;;;-0.19;100.00;92726.09;5093474;28;20052;-71
2022/12/14 01:10:18;;;;;;;39.78;26.73;;;;;;;-0.13;100.00;92724.69;5093359;28;20121;-71
2022/12/14 01:12:45;;;;;;;35.88;25.55;;;;;;;-0.04;100.00;92733.81;5092713;28;20051;-71
2022/12/14 01:15:12;;;;;;;39.67;26.05;;;;;;;0.01;100.00;92725.00;5092651;28;20101;-72
2022/12/14 01:17:41;;;;;;;40.17;26.92;;;;;;;-0.05;100.00;92723.91;5092668;28;20097;-71
2022/12/14 01:20:09;;;;;;;37.78;26.58;;;;;;;-0.20;100.00;92732.09;5092148;28;20134;-72
2022/12/14 01:22:36;;;;;;;40.25;27.55;;;;;;;-0.11;100.00;92730.34;5078442;28;20044;-72
2022/12/14 01:25:03;;;;;;;39.60;25.90;;;;;;;-0.05;100.00;92713.81;5092480;28;20093;-71
2022/12/14 01:27:30;;;;;;;41.78;27.83;;;;;;;-0.16;100.00;92720.72;5092362;28;20089;-71
2022/12/14 01:29:56;;;;;;;37.42;24.60;;;;;;;-0.29;100.00;92712.81;5092733;28;20048;-72
2022/12/14 01:32:23;;;;;;;37.45;24.50;;;;;;;-0.39;100.00;92705.38;5092757;28;20102;-71
2022/12/14 01:34:51;;;;;;;44.47;28.15;;;;;;;-0.53;100.00;92706.78;5092820;28;20048;-71
2022/12/14 01:37:18;;;;;;;65.10;37.35;;;;;;;-0.95;100.00;92688.22;5092769;28;20048;-71
2022/12/14 01:39:46;;;;;;;52.28;32.92;;;;;;;-0.84;100.00;92690.47;5092768;28;20133;-72
2022/12/14 01:42:15;;;;;;;72.55;40.92;;;;;;;-1.08;100.00;92699.53;5092421;28;20166;-71
2022/12/14 01:44:58;;;;;;;55.17;33.47;;;;;;;-1.05;100.00;92698.44;5086982;28;20101;-71
2022/12/14 01:47:37;;;;;;;46.25;31.48;;;;;;;-1.16;100.00;92660.88;5092247;28;20901;-72
2022/12/14 01:50:13;;;;;;;45.47;31.60;;;;;;;-0.95;100.00;92693.25;5092222;28;20101;-71
2022/12/14 01:52:43;;;;;;;48.22;32.97;;;;;;;-0.73;100.00;92688.59;5092396;28;20107;-71
2022/12/14 01:55:14;;;;;;;52.80;34.55;;;;;;;-0.61;100.00;92689.13;5091952;28;20040;-71
2022/12/14 01:57:47;;;;;;;45.72;31.85;;;;;;;-0.71;100.00;92681.66;5092385;28;20047;-71
2022/12/14 02:00:15;;;;;;;57.95;37.80;;;;;;;-0.65;100.00;92678.53;5092223;28;20051;-71
2022/12/14 02:02:47;;;;;;;59.45;39.33;;;;;;;-0.85;100.00;92673.75;5092203;28;20044;-71
2022/12/14 02:05:18;;;;;;;48.10;33.10;;;;;;;-0.85;100.00;92668.72;5091908;28;20056;-71
2022/12/14 02:07:46;;;;;;;42.53;29.73;;;;;;;-0.82;100.00;92690.31;5091766;28;20048;-71
2022/12/14 02:10:13;;;;;;;44.03;30.58;;;;;;;-0.78;100.00;92679.00;5092120;28;20044;-72
2022/12/14 02:12:44;;;;;;;44.50;30.02;;;;;;;-0.73;100.00;92676.78;5092000;28;20075;-71
2022/12/14 02:15:13;;;;;;;42.80;29.80;;;;;;;-0.69;100.00;92672.22;5091708;28;20059;-70
2022/12/14 02:17:42;;;;;;;43.90;30.00;;;;;;;-0.64;100.00;92676.81;5092038;28;20048;-70
2022/12/14 02:20:11;;;;;;;42.88;30.05;;;;;;;-0.57;100.00;92680.28;5090562;28;20056;-70
2022/12/14 02:23:27;;;;;;;44.63;30.88;;;;;;;-0.73;100.00;92673.47;5083081;28;20070;-70
2022/12/14 02:26:30;;;;;;;41.00;29.42;;;;;;;-0.77;100.00;92670.47;5080453;28;20122;-71
2022/12/14 02:29:35;;;;;;;42.75;29.63;;;;;;;-0.94;100.00;92664.56;5079463;28;20077;-71
2022/12/14 02:32:16;;;;;;;39.80;29.00;;;;;;;-1.01;100.00;92663.63;5079426;28;20084;-71
2022/12/14 02:34:55;;;;;;;41.65;30.08;;;;;;;-0.89;100.00;92664.13;5081106;28;20044;-71
2022/12/14 02:37:29;;;;;;;42.78;29.35;;;;;;;-0.66;100.00;92663.56;5091448;28;20476;-71
2022/12/14 02:40:12;;;;;;;39.50;28.83;;;;;;;-0.63;100.00;92653.16;5091312;28;20094;-71
2022/12/14 02:42:45;;;;;;;40.20;29.17;;;;;;;-0.92;100.00;92647.59;5091116;28;20672;-71
2022/12/14 02:45:21;;;;;;;80.05;49.35;;;;;;;-0.79;100.00;92656.44;5090686;28;20097;-71
2022/12/14 02:47:54;;;;;;;39.17;28.35;;;;;;;-0.82;100.00;92655.78;5090888;28;20069;-71
2022/12/14 02:50:24;;;;;;;40.92;28.38;;;;;;;-0.72;100.00;92659.91;5077360;28;20047;-72
2022/12/14 02:53:01;;;;;;;47.30;32.03;;;;;;;-0.78;100.00;92660.53;5090642;28;20044;-72
2022/12/14 02:55:33;;;;;;;52.05;34.95;;;;;;;-0.69;100.00;92662.13;5091009;28;20052;-72
2022/12/14 02:58:02;;;;;;;42.38;29.75;;;;;;;-0.52;100.00;92657.91;5090995;28;20056;-72
2022/12/14 03:00:32;;;;;;;48.17;33.15;;;;;;;-0.56;100.00;92654.91;5097419;28;20055;-72
2022/12/14 03:03:02;;;;;;;47.83;32.28;;;;;;;-0.78;100.00;92653.78;5098188;28;20048;-72
2022/12/14 03:05:28;;;;;;;57.67;37.50;;;;;;;-0.70;100.00;92648.72;5087770;28;20466;-72
2022/12/14 03:07:57;;;;;;;98.95;59.72;;;;;;;-0.64;100.00;92661.66;5081266;28;20113;-72
2022/12/14 03:10:33;;;;;;;71.85;43.88;;;;;;;-0.67;100.00;92662.75;5081965;28;20470;-71
2022/12/14 03:13:06;;;;;;;49.83;33.67;;;;;;;-0.69;100.00;92640.22;5087012;28;20048;-72
2022/12/14 03:15:38;;;;;;;57.42;37.42;;;;;;;-0.43;100.00;92659.50;5090799;28;20578;-72
2022/12/14 03:18:09;;;;;;;68.25;45.00;;;;;;;-0.55;100.00;92650.66;5090651;28;20056;-71
2022/12/14 03:20:38;;;;;;;51.85;35.00;;;;;;;-0.38;100.00;92648.91;5090474;28;20060;-71
2022/12/14 03:23:10;;;;;;;46.97;34.63;;;;;;;-0.49;100.00;92647.50;5088024;28;20594;-71
2022/12/14 03:25:42;;;;;;;53.90;37.47;;;;;;;-0.57;100.00;92638.19;5069828;28;20048;-71
2022/12/14 03:28:16;;;;;;;45.10;31.90;;;;;;;-0.54;100.00;92642.13;5069424;28;20492;-70
2022/12/14 03:30:49;;;;;;;48.10;33.55;;;;;;;-0.42;100.00;92652.69;5069558;28;20496;-71
2022/12/14 03:33:21;;;;;;;46.78;32.35;;;;;;;-0.45;100.00;92651.31;5069421;28;20048;-71
2022/12/14 03:35:56;;;;;;;50.20;33.08;;;;;;;-0.41;100.00;92652.53;5069673;28;20102;-71
2022/12/14 03:38:30;;;;;;;43.75;29.95;;;;;;;-0.51;100.00;92646.84;5069413;28;20082;-70
2022/12/14 03:41:09;;;;;;;43.15;28.98;;;;;;;-0.65;100.00;92648.25;5069646;28;20074;-70
2022/12/14 03:43:42;;;;;;;38.78;28.13;;;;;;;-0.54;100.00;92649.69;5069399;28;20040;-70
2022/12/14 03:46:14;;;;;;;42.75;28.85;;;;;;;-0.70;100.00;92636.13;5069138;28;20048;-70
2022/12/14 03:48:47;;;;;;;36.83;25.65;;;;;;;-0.69;100.00;92644.47;5070564;28;20049;-70
2022/12/14 03:51:21;;;;;;;37.03;25.15;;;;;;;-0.83;100.00;92641.59;5069627;28;20463;-71
2022/12/14 03:53:56;;;;;;;34.72;24.65;;;;;;;-0.73;100.00;92638.16;5069219;28;20048;-70
2022/12/14 03:56:33;;;;;;;35.42;25.98;;;;;;;-0.76;100.00;92641.78;5069583;28;20056;-71
2022/12/14 03:59:07;;;;;;;30.45;22.15;;;;;;;-0.76;100.00;92640.97;5069449;28;20058;-70
2022/12/14 04:01:41;;;;;;;35.58;23.83;;;;;;;-0.83;100.00;92646.66;5069446;28;20044;-71
2022/12/14 04:04:14;;;;;;;36.45;26.45;;;;;;;-0.86;100.00;92644.44;5069349;28;20040;-70
2022/12/14 04:06:48;;;;;;;34.65;25.85;;;;;;;-0.79;100.00;92644.59;5068901;28;20052;-70
2022/12/14 04:09:27;;;;;;;36.15;26.20;;;;;;;-0.93;100.00;92651.03;5069395;28;20451;-71
2022/12/14 04:20:31;;;;;;;47.42;30.95;;;;;;;-0.56;100.00;92661.66;5089173;28;20070;-71
2022/12/14 04:23:09;;;;;;;43.17;30.92;;;;;;;-0.63;100.00;92641.34;5089354;28;20036;-71
2022/12/14 04:31:21;;;;;;;44.65;30.58;;;;;;;-0.30;100.00;92664.09;5089636;28;20561;-71
2022/12/14 04:33:52;;;;;;;51.78;32.80;;;;;;;-0.24;100.00;92654.31;5101090;28;20044;-72
2022/12/14 04:36:28;;;;;;;52.90;37.08;;;;;;;-0.29;100.00;92655.56;5091323;28;20044;-71
2022/12/14 04:39:00;;;;;;;41.60;28.95;;;;;;;-0.23;100.00;92659.19;5089760;28;20443;-71
2022/12/14 04:41:33;;;;;;;34.00;24.75;;;;;;;-0.35;100.00;92666.28;5089238;28;20052;-71
2022/12/14 04:44:04;;;;;;;28.23;21.67;;;;;;;-0.52;100.00;92662.94;5089682;28;20059;-70
2022/12/14 04:46:34;;;;;;;31.27;22.00;;;;;;;-0.62;100.00;92662.28;5089599;28;20048;-71
2022/12/14 04:49:08;;;;;;;33.90;24.00;;;;;;;-0.54;100.00;92652.22;5089104;28;20427;-71
2022/12/14 04:51:46;;;;;;;29.92;21.70;;;;;;;-0.47;100.00;92652.41;5089289;28;20058;-70
2022/12/14 04:54:18;;;;;;;28.38;21.70;;;;;;;-0.61;100.00;92648.75;5089505;28;20044;-70
2022/12/14 04:56:50;;;;;;;29.45;21.00;;;;;;;-0.74;100.00;92641.63;5092714;28;20120;-71
2022/12/14 04:59:17;;;;;;;31.95;22.45;;;;;;;-0.83;100.00;92636.56;5099311;28;20565;-71
2022/12/14 05:01:52;;;;;;;32.95;23.98;;;;;;;-0.82;100.00;92637.34;5089488;28;20052;-71
2022/12/14 05:04:27;;;;;;;32.47;24.92;;;;;;;-0.89;100.00;92641.44;5089509;28;20044;-71
2022/12/14 05:07:06;;;;;;;30.77;22.08;;;;;;;-0.69;100.00;92642.72;5089416;28;20048;-71
2022/12/14 05:09:39;;;;;;;32.58;23.33;;;;;;;-0.59;100.00;92637.56;5089187;28;20075;-71
2022/12/14 05:12:11;;;;;;;32.78;23.75;;;;;;;-0.55;100.00;92650.66;5088652;28;20097;-70
2022/12/14 05:14:42;;;;;;;33.22;24.02;;;;;;;-0.59;100.00;92652.69;5089200;28;20048;-71
2022/12/14 05:17:09;;;;;;;40.67;26.55;;;;;;;-0.91;100.00;92655.91;5091292;28;20048;-71
2022/12/14 05:19:36;;;;;;;46.38;31.73;;;;;;;-0.86;100.00;92667.13;5093000;28;20114;-71
2022/12/14 05:22:07;;;;;;;40.00;27.00;;;;;;;-0.89;100.00;92677.53;5093076;28;20048;-70
2022/12/14 05:24:33;;;;;;;38.38;26.98;;;;;;;-1.06;100.00;92689.28;5092813;28;20495;-70
2022/12/14 05:27:00;;;;;;;43.03;29.90;;;;;;;-1.06;100.00;92684.25;5092846;28;20056;-70
2022/12/14 05:29:27;;;;;;;34.83;24.38;;;;;;;-1.00;100.00;92676.06;5092918;28;20052;-71
2022/12/14 05:31:54;;;;;;;33.50;23.25;;;;;;;-0.98;100.00;92663.31;5092901;28;20055;-71
2022/12/14 05:34:21;;;;;;;34.53;24.83;;;;;;;-0.85;100.00;92662.88;5092763;28;20048;-70
2022/12/14 05:36:47;;;;;;;32.38;24.08;;;;;;;-0.72;100.00;92662.44;5092755;28;20047;-70
2022/12/14 05:39:16;;;;;;;27.48;21.88;;;;;;;-0.60;100.00;92662.94;5092766;28;20041;-71
2022/12/14 05:41:43;;;;;;;31.88;22.63;;;;;;;-0.86;100.00;92663.81;5092528;28;20585;-71
2022/12/14 05:44:10;;;;;;;31.67;21.35;;;;;;;-0.75;100.00;92665.28;5092498;28;20044;-70
2022/12/14 05:46:37;;;;;;;31.95;22.58;;;;;;;-0.72;100.00;92662.44;5092715;28;20101;-71
2022/12/14 05:49:04;;;;;;;32.35;24.33;;;;;;;-0.84;100.00;92669.47;5091677;28;20103;-70
2022/12/14 05:51:31;;;;;;;29.00;20.70;;;;;;;-0.76;100.00;92674.56;5092543;28;20059;-70
2022/12/14 05:53:58;;;;;;;24.92;20.00;;;;;;;-0.72;100.00;92685.13;5092330;28;20048;-71
2022/12/14 05:56:26;;;;;;;30.40;22.02;;;;;;;-0.72;100.00;92682.59;5092301;28;20382;-70
2022/12/14 05:58:53;;;;;;;38.85;26.17;;;;;;;-0.65;100.00;92681.03;5092522;28;20108;-70
2022/12/14 06:01:20;;;;;;;28.38;21.17;;;;;;;-0.64;100.00;92674.28;5092250;28;20059;-70
2022/12/14 06:03:46;;;;;;;25.20;19.15;;;;;;;-0.83;100.00;92668.56;5092262;28;20093;-70
2022/12/14 06:06:14;;;;;;;29.38;22.05;;;;;;;-0.89;100.00;92652.31;5092005;28;20082;-70
2022/12/14 06:08:44;;;;;;;26.35;20.73;;;;;;;-0.91;100.00;92676.91;5092190;28;20126;-70
2022/12/14 06:11:13;;;;;;;27.10;20.75;;;;;;;-0.83;100.00;92678.66;5092192;28;20051;-70
2022/12/14 06:13:42;;;;;;;24.02;19.00;;;;;;;-0.77;100.00;92680.56;5091982;28;20465;-70
2022/12/14 06:16:11;;;;;;;25.00;19.73;;;;;;;-0.85;100.00;92675.47;5092030;28;20056;-70
2022/12/14 06:18:42;;;;;;;26.92;19.67;;;;;;;-0.79;100.00;92687.47;5088739;28;20044;-70
2022/12/14 06:21:09;;;;;;;25.05;19.30;;;;;;;-0.58;100.00;92699.69;5089636;28;20078;-71
2022/12/14 06:23:35;;;;;;;24.40;18.77;;;;;;;-0.58;100.00;92688.78;5091458;28;20044;-70
2022/12/14 06:26:02;;;;;;;25.17;18.75;;;;;;;-0.41;100.00;92694.66;5092130;28;20055;-70
2022/12/14 06:28:29;;;;;;;25.60;19.60;;;;;;;-0.31;100.00;92697.03;5090519;28;20672;-70
2022/12/14 06:30:57;;;;;;;24.33;19.15;;;;;;;-0.28;100.00;92694.19;5091287;28;20105;-70
2022/12/14 06:33:24;;;;;;;22.08;18.75;;;;;;;-0.31;100.00;92695.31;5091575;28;20180;-70
2022/12/14 06:35:50;;;;;;;23.13;17.60;;;;;;;-0.24;100.00;92687.91;5091795;28;20097;-70
2022/12/14 06:38:17;;;;;;;26.67;19.45;;;;;;;-0.21;100.00;92690.13;5091015;28;20113;-70
2022/12/14 06:40:44;;;;;;;26.38;20.48;;;;;;;-0.27;100.00;92675.59;5091288;28;20496;-70
2022/12/14 06:43:11;;;;;;;20.17;16.00;;;;;;;-0.31;100.00;92686.94;5091076;28;20449;-70
2022/12/14 06:45:38;;;;;;;23.85;17.33;;;;;;;-0.32;100.00;92692.94;5091341;28;20048;-70
2022/12/14 06:48:07;;;;;;;22.92;18.05;;;;;;;-0.27;100.00;92700.84;5090817;28;20051;-70
2022/12/14 06:50:33;;;;;;;22.70;17.67;;;;;;;-0.24;100.00;92710.63;5091390;28;20105;-71
2022/12/14 06:53:00;;;;;;;26.23;18.90;;;;;;;-0.55;100.00;92711.19;5091225;28;20480;-70
2022/12/14 06:55:28;;;;;;;27.55;20.25;;;;;;;-0.32;100.00;92718.97;5091027;28;20060;-70
2022/12/14 06:57:55;;;;;;;40.80;29.42;;;;;;;-0.42;100.00;92701.44;5091220;28;20678;-71
2022/12/14 07:00:23;;;;;;;32.13;24.17;;;;;;;-0.42;100.00;92711.53;5090834;28;20039;-71
2022/12/14 07:02:51;;;;;;;30.98;24.33;;;;;;;-0.23;100.00;92712.19;5090980;28;20052;-70
2022/12/14 07:05:19;;;;;;;33.00;24.08;;;;;;;-0.45;100.00;92698.44;5090990;28;20112;-70
2022/12/14 07:07:46;;;;;;;39.30;28.13;;;;;;;-0.42;100.00;92715.78;5090834;28;20477;-70
2022/12/14 07:10:13;;;;;;;30.05;22.77;;;;;;;-0.28;100.00;92720.22;5090938;28;20047;-70
2022/12/14 07:12:40;;;;;;;38.67;27.85;;;;;;;-0.17;100.00;92723.41;5090889;28;20113;-71
2022/12/14 07:15:07;;;;;;;36.25;24.60;;;;;;;-0.12;100.00;92726.25;5090385;28;20101;-70
2022/12/14 07:17:36;;;;;;;30.52;20.90;;;;;;;-0.20;100.00;92718.66;5090571;28;20048;-71
2022/12/14 07:20:04;;;;;;;25.25;17.20;;;;;;;-0.06;100.00;92737.44;5090840;28;20415;-70
2022/12/14 07:22:32;;;;;;;21.67;15.27;;;;;;;-0.10;100.00;92747.06;5090944;28;20044;-70
2022/12/14 07:24:59;;;;;;;25.15;16.50;;;;;;;0.06;100.00;92748.84;5090649;28;20044;-70
2022/12/14 07:27:26;;;;;;;26.20;16.67;;;;;;;0.19;100.00;92745.81;5090824;28;20475;-71
2022/12/14 07:29:52;;;;;;;23.30;16.40;;;;;;;0.24;100.00;92746.16;5090521;28;20453;-70
2022/12/14 07:32:19;;;;;;;28.45;18.92;;;;;;;0.32;100.00;92744.59;5090506;28;20097;-70
2022/12/14 07:34:46;;;;;;;31.00;20.70;;;;;;;0.42;100.00;92740.16;5090262;28;20810;-71
2022/12/14 07:37:14;;;;;;;37.67;26.63;;;;;;;0.37;100.00;92744.91;5090356;28;20083;-70
2022/12/14 07:39:42;;;;;;;23.38;16.30;;;;;;;0.24;100.00;92740.31;5090317;28;20052;-71
2022/12/14 07:42:08;;;;;;;18.40;13.68;;;;;;;0.23;100.00;92736.22;5089920;28;20569;-72
2022/12/14 07:44:35;;;;;;;22.95;16.88;;;;;;;0.20;100.00;92739.84;5090183;28;20048;-71
2022/12/14 07:47:02;;;;;;;27.98;20.60;;;;;;;0.20;100.00;92724.69;5090044;28;20059;-71
2022/12/14 07:49:28;;;;;;;33.40;19.67;;;;;;;0.24;100.00;92735.28;5089629;28;20128;-71
2022/12/14 07:51:55;;;;;;;34.17;21.38;;;;;;;0.31;100.00;92730.34;5090172;28;20048;-71
2022/12/14 07:54:22;;;;;;;31.05;20.65;;;;;;;0.37;100.00;92729.75;5089857;28;20048;-71
2022/12/14 07:56:50;;;;;;;34.58;23.00;;;;;;;0.46;100.00;92733.06;5089956;28;20058;-71
2022/12/14 07:59:18;;;;;;;30.63;20.48;;;;;;;0.49;100.00;92731.00;5089843;28;20058;-71
2022/12/14 08:01:45;;;;;;;23.67;19.27;;;;;;;0.49;100.00;92732.72;5089990;28;20052;-71
2022/12/14 08:04:15;;;;;;;25.02;18.52;;;;;;;0.30;100.00;92746.47;5090012;28;20040;-70
2022/12/14 08:06:42;;;;;;;23.65;18.52;;;;;;;0.15;100.00;92747.13;5090005;28;20048;-70
2022/12/14 08:09:11;;;;;;;26.80;20.10;;;;;;;0.16;100.00;92746.16;5089570;28;20052;-70
2022/12/14 08:11:39;;;;;;;27.52;20.52;;;;;;;0.13;100.00;92759.09;5089632;28;20087;-71
2022/12/14 08:14:11;;;;;;;35.58;26.55;;;;;;;0.36;100.00;92756.72;5089630;28;20560;-71
2022/12/14 08:16:37;;;;;;;49.63;36.30;;;;;;;0.13;100.00;92751.50;5089708;28;20492;-71
2022/12/14 08:19:04;;;;;;;44.38;31.35;;;;;;;-0.11;100.00;92747.22;5089787;28;20040;-70
2022/12/14 08:21:31;;;;;;;41.40;30.10;;;;;;;0.12;100.00;92775.19;5089676;28;20051;-70
2022/12/14 08:23:58;;;;;;;89.43;49.17;;;;;;;0.06;100.00;92764.00;5089612;28;20067;-70
2022/12/14 08:26:26;;;;;;;37.03;24.00;;;;;;;0.24;100.00;92758.78;5089571;28;20127;-71
2022/12/14 08:28:54;;;;;;;48.22;31.63;;;;;;;0.32;100.00;92737.00;5089190;28;20097;-70
2022/12/14 08:31:23;;;;;;;46.13;29.95;;;;;;;0.37;100.00;92748.19;5089797;28;20135;-70
2022/12/14 08:33:51;;;;;;;40.13;25.92;;;;;;;0.52;100.00;92745.81;5089242;28;20438;-71
2022/12/14 08:36:21;;;;;;;32.78;22.38;;;;;;;0.39;100.00;92723.59;5089544;28;20101;-71
2022/12/14 08:38:53;;;;;;;19.58;15.07;;;;;;;0.51;100.00;92756.09;5089608;28;20056;-70
2022/12/14 08:41:20;;;;;;;16.77;14.27;;;;;;;0.43;100.00;92751.84;5089813;28;20040;-70
2022/12/14 08:43:49;;;;;;;19.85;14.40;;;;;;;0.39;100.00;92753.09;5089592;28;20128;-70
2022/12/14 08:46:16;;;;;;;19.05;14.93;;;;;;;0.26;100.00;92756.09;5089486;28;20121;-70
2022/12/14 08:48:44;;;;;;;25.73;19.67;;;;;;;0.26;100.00;92761.16;5089133;28;20101;-70
2022/12/14 08:51:11;;;;;;;38.40;25.50;;;;;;;0.15;100.00;92759.75;5090274;28;20048;-70
2022/12/14 08:53:38;;;;;;;23.83;19.02;;;;;;;0.17;100.00;92765.41;5093606;28;20060;-70
2022/12/14 08:56:07;;;;;;;26.75;21.13;;;;;;;0.02;100.00;92760.19;5093717;28;20109;-71
2022/12/14 08:58:34;;;;;;;28.95;22.27;;;;;;;0.03;100.00;92753.41;5093633;28;20072;-71
2022/12/14 09:01:02;;;;;;;27.48;21.70;;;;;;;0.04;100.00;92743.16;5085903;28;20445;-71
2022/12/14 09:03:29;;;;;;;28.70;21.95;;;;;;;-0.10;100.00;92723.59;5084437;28;20083;-70
2022/12/14 09:05:57;;;;;;;31.17;24.23;;;;;;;0.06;100.00;92748.84;5093410;28;20040;-70
2022/12/14 09:08:24;;;;;;;58.25;42.17;;;;;;;-0.01;100.00;92751.19;5093442;28;20052;-70
2022/12/14 09:10:50;;;;;;;28.58;22.95;;;;;;;-0.05;100.00;92752.44;5086981;28;20576;-71
2022/12/14 09:13:21;;;;;;;28.60;22.20;;;;;;;-0.33;100.00;92742.63;5080140;28;20492;-71
2022/12/14 09:15:56;;;;;;;28.63;21.73;;;;;;;-0.23;100.00;92736.66;5072740;28;20129;-72
2022/12/14 09:18:22;;;;;;;28.10;22.33;;;;;;;-0.25;100.00;92720.84;5072364;28;20060;-72
2022/12/14 09:20:50;;;;;;;27.08;21.27;;;;;;;-0.07;100.00;92725.78;5071961;28;20045;-71
2022/12/14 09:23:18;;;;;;;31.23;21.33;;;;;;;-0.11;100.00;92720.25;5072305;28;20048;-72
2022/12/14 09:25:45;;;;;;;27.17;20.75;;;;;;;-0.08;100.00;92722.47;5072285;28;20106;-72
2022/12/14 09:28:11;;;;;;;27.65;21.17;;;;;;;0.02;100.00;92724.84;5072103;28;20057;-72
2022/12/14 09:30:38;;;;;;;29.08;22.90;;;;;;;0.11;100.00;92710.47;5072351;28;20094;-72
2022/12/14 09:33:05;;;;;;;33.72;24.38;;;;;;;0.34;100.00;92719.94;5071944;28;20045;-72
2022/12/14 09:35:32;;;;;;;31.20;24.75;;;;;;;0.53;100.00;92723.88;5071933;28;20559;-73
2022/12/14 09:37:59;;;;;;;28.52;22.50;;;;;;;0.51;100.00;92725.78;5072255;28;20109;-73
2022/12/14 09:40:32;;;;;;;31.27;24.50;;;;;;;0.63;100.00;92726.22;5071953;28;20103;-73
2022/12/14 09:43:04;;;;;;;39.05;26.27;;;;;;;0.60;100.00;92721.50;5088072;28;20048;-72
2022/12/14 09:45:33;;;;;;;42.03;33.38;;;;;;;0.70;100.00;92722.13;5092088;28;20094;-73
2022/12/14 09:48:07;;;;;;;44.08;37.40;;;;;;;0.70;100.00;92708.69;5092249;28;20079;-73
2022/12/14 09:50:34;;;;;;;34.53;27.38;;;;;;;0.65;100.00;92694.78;5092666;28;20128;-73
2022/12/14 09:53:05;;;;;;;34.83;28.67;;;;;;;0.65;100.00;92699.06;5092387;28;20101;-72
2022/12/14 09:55:36;;;;;;;35.65;28.08;;;;;;;0.49;100.00;92672.88;5092189;28;20504;-72
2022/12/14 09:58:12;;;;;;;36.45;30.70;;;;;;;0.79;100.00;92695.06;5092445;28;20133;-72
2022/12/14 10:00:43;;;;;;;32.63;26.20;;;;;;;0.82;100.00;92683.84;5092462;28;20048;-72
2022/12/14 10:03:26;;;;;;;29.70;24.40;;;;;;;0.57;100.00;92686.44;5090400;28;20051;-72
2022/12/14 10:06:11;;;;;;;43.28;33.60;;;;;;;0.62;100.00;92684.22;5092082;28;20076;-72
2022/12/14 10:08:43;;;;;;;30.77;24.42;;;;;;;0.48;100.00;92688.19;5092234;28;20484;-72
2022/12/14 10:11:23;;;;;;;36.75;26.30;;;;;;;0.40;100.00;92661.19;5092059;28;20389;-72
2022/12/14 10:14:00;;;;;;;41.70;28.17;;;;;;;0.61;100.00;92662.41;5091922;28;20052;-72
2022/12/14 10:16:36;;;;;;;41.22;31.60;;;;;;;0.79;100.00;92672.31;5092013;28;20093;-72
2022/12/14 10:19:08;;;;;;;;;;;;;;;0.86;100.00;92667.38;5092474;28;20495;-72
2022/12/14 10:21:48;;;;;;;51.45;36.45;;;;;;;0.69;100.00;92662.38;5092046;28;19920;-72
2022/12/14 10:24:20;;;;;;;41.75;32.03;;;;;;;0.66;100.00;92663.50;5091915;28;20048;-72
2022/12/14 10:26:51;;;;;;;50.10;36.95;;;;;;;0.52;100.00;92649.00;5090412;28;20082;-73
2022/12/14 10:29:26;;;;;;;33.70;27.50;;;;;;;0.58;100.00;92652.63;5091575;28;20047;-73
2022/12/14 10:32:03;;;;;;;40.15;30.80;;;;;;;0.65;100.00;92656.09;5091417;28;20492;-72
2022/12/14 10:34:32;;;;;;;39.08;29.15;;;;;;;0.68;100.00;92657.50;5091301;28;20076;-73
2022/12/14 10:37:10;;;;;;;39.55;30.95;;;;;;;0.64;100.00;92647.72;5091595;28;20069;-72
2022/12/14 10:39:47;;;;;;;37.58;28.83;;;;;;;0.72;100.00;92654.47;5081482;28;20062;-71
2022/12/14 10:42:24;;;;;;;37.70;28.95;;;;;;;0.81;100.00;92652.72;5086079;28;20048;-71
2022/12/14 10:45:01;;;;;;;32.38;27.27;;;;;;;0.88;100.00;92645.28;5091167;28;20048;-71
2022/12/14 10:47:36;;;;;;;43.40;33.40;;;;;;;0.82;100.00;92648.44;5091200;28;20076;-71
2022/12/14 10:50:13;;;;;;;44.00;32.45;;;;;;;0.73;100.00;92635.84;5091225;28;20556;-71
2022/12/14 10:52:42;;;;;;;44.13;33.38;;;;;;;0.82;100.00;92635.81;5091363;28;20648;-70
2022/12/14 10:55:15;;;;;;;46.58;36.47;;;;;;;0.80;100.00;92628.38;5091027;28;20079;-70
2022/12/14 10:57:43;;;;;;;44.40;34.47;;;;;;;0.85;100.00;92628.69;5090389;28;20545;-70
2022/12/14 11:00:13;;;;;;;46.22;32.53;;;;;;;0.76;100.00;92610.22;5091057;28;20105;-69
2022/12/14 11:02:43;;;;;;;44.65;31.60;;;;;;;0.70;100.00;92621.00;5090942;28;20052;-69
2022/12/14 11:05:22;;;;;;;38.80;29.90;;;;;;;0.76;100.00;92627.94;5090912;28;20056;-69
2022/12/14 11:07:49;;;;;;;51.45;36.30;;;;;;;0.69;100.00;92632.03;5090722;28;20488;-69
2022/12/14 11:10:18;;;;;;;40.70;31.42;;;;;;;0.78;100.00;92622.69;5090395;28;20134;-69
2022/12/14 11:13:05;;;;;;;37.10;29.70;;;;;;;0.79;100.00;92622.53;5090675;28;20058;-68
2022/12/14 11:15:35;;;;;;;41.65;32.80;;;;;;;0.89;100.00;92621.56;5090484;28;20097;-69
2022/12/14 11:18:06;;;;;;;39.28;31.55;;;;;;;0.91;100.00;92629.75;5090655;28;20416;-69
2022/12/14 11:20:33;;;;;;;42.65;31.88;;;;;;;0.89;100.00;92598.78;5074655;28;20569;-70
2022/12/14 11:23:07;;;;;;;34.00;27.73;;;;;;;0.94;100.00;92621.84;5069974;28;20072;-70
2022/12/14 11:25:38;;;;;;;38.72;31.02;;;;;;;0.97;100.00;92621.50;5072788;28;20048;-70
2022/12/14 11:28:22;;;;;;;37.60;29.42;;;;;;;1.05;100.00;92623.22;5069971;28;20099;-70
2022/12/14 11:30:57;;;;;;;37.22;29.60;;;;;;;0.82;100.00;92593.59;5069543;28;20463;-70
2022/12/14 11:33:31;;;;;;;45.53;33.80;;;;;;;0.96;100.00;92619.16;5069018;28;20040;-70
2022/12/14 11:35:59;;;;;;;44.78;35.13;;;;;;;1.00;100.00;92616.13;5083896;28;20052;-70
2022/12/14 11:38:28;;;;;;;40.33;32.80;;;;;;;0.82;100.00;92592.84;5090330;28;20052;-70
2022/12/14 11:40:55;;;;;;;36.88;31.05;;;;;;;0.70;100.00;92618.47;5090577;28;20044;-70